createdAt,value
2022-08-11T00:10:16.319Z,53.30
2022-08-11T00:15:45.852Z,53.70
2022-08-11T00:21:19.334Z,53.50
2022-08-11T00:27:08.061Z,54.10
2022-08-11T00:32:40.228Z,54.20
2022-08-11T00:38:09.198Z,54.00
2022-08-11T00:44:16.672Z,54.20
2022-08-11T00:50:18.426Z,54.60
2022-08-11T00:56:17.746Z,54.70
2022-08-11T01:01:54.359Z,55.00
2022-08-11T01:08:01.222Z,54.90
2022-08-11T01:14:02.475Z,55.00
2022-08-11T01:26:34.657Z,55.50
2022-08-11T01:32:52.627Z,55.70
2022-08-11T01:39:06.125Z,55.90
2022-08-11T01:44:58.658Z,56.00
2022-08-11T01:56:28.058Z,56.50
2022-08-11T02:02:42.578Z,56.20
2022-08-11T02:08:50.411Z,56.70
2022-08-11T02:14:53.626Z,56.90
2022-08-11T02:21:15.063Z,57.00
2022-08-11T02:26:53.634Z,57.20
2022-08-11T02:32:54.962Z,57.30
2022-08-11T02:39:04.205Z,57.40
2022-08-11T02:45:07.536Z,57.60
2022-08-11T02:50:49.447Z,57.60
2022-08-11T02:56:45.487Z,57.70
2022-08-11T03:02:44.226Z,57.80
2022-08-11T03:08:28.485Z,58.10
2022-08-11T03:14:44.186Z,58.60
2022-08-11T03:20:48.999Z,58.40
2022-08-11T03:26:46.892Z,58.50
2022-08-11T03:32:38.287Z,58.40
2022-08-11T03:38:14.166Z,58.90
2022-08-11T03:44:07.230Z,59.00
2022-08-11T03:50:06.523Z,59.20
2022-08-11T03:56:11.613Z,59.00
2022-08-11T04:02:27.662Z,59.30
2022-08-11T04:08:04.438Z,59.70
2022-08-11T04:14:30.677Z,59.60
2022-08-11T04:20:47.812Z,60.00
2022-08-11T04:26:49.549Z,59.80
2022-08-11T04:32:41.543Z,59.90
2022-08-11T04:39:10.736Z,60.40
2022-08-11T04:44:42.237Z,60.40
2022-08-11T04:56:59.189Z,60.60
2022-08-11T05:02:41.843Z,61.00
2022-08-11T05:08:43.661Z,60.90
2022-08-11T05:20:18.999Z,61.20
2022-08-11T05:26:45.531Z,61.00
2022-08-11T05:32:18.489Z,61.10
2022-08-11T05:38:06.069Z,61.30
2022-08-11T05:44:20.056Z,61.30
2022-08-11T05:50:13.291Z,61.40
2022-08-11T05:56:04.022Z,61.20
2022-08-11T06:01:34.615Z,61.20
2022-08-11T06:07:11.055Z,61.40
2022-08-11T06:18:12.301Z,61.10
2022-08-11T06:23:42.776Z,61.20
2022-08-11T06:29:11.954Z,61.10
2022-08-11T06:35:01.277Z,60.80
2022-08-11T06:41:07.102Z,60.60
2022-08-11T06:46:39.219Z,61.30
2022-08-11T06:52:34.175Z,60.40
2022-08-11T06:58:22.829Z,60.30
2022-08-11T07:04:06.537Z,60.10
2022-08-11T07:10:34.483Z,59.90
2022-08-11T07:16:12.525Z,59.80
2022-08-11T07:22:03.979Z,59.50
2022-08-11T07:28:03.070Z,59.40
2022-08-11T07:34:08.270Z,59.40
2022-08-11T07:39:38.632Z,59.20
2022-08-11T07:45:28.372Z,59.10
2022-08-11T07:51:15.982Z,59.00
2022-08-11T07:57:07.210Z,59.10
2022-08-11T08:02:52.531Z,58.80
2022-08-11T08:08:39.388Z,58.80
2022-08-11T08:14:28.090Z,58.50
2022-08-11T08:19:56.349Z,58.60
2022-08-11T08:25:37.334Z,58.60
2022-08-11T08:31:05.435Z,58.60
2022-08-11T08:36:33.362Z,58.40
2022-08-11T08:42:11.151Z,58.70
2022-08-11T08:47:43.770Z,58.00
2022-08-11T08:53:12.686Z,57.20
2022-08-11T08:58:43.055Z,57.30
2022-08-11T09:04:18.913Z,57.00
2022-08-11T09:09:54.706Z,56.20
2022-08-11T09:15:24.281Z,56.30
2022-08-11T09:20:55.669Z,55.90
2022-08-11T09:26:42.483Z,55.60
2022-08-11T09:32:12.099Z,55.50
2022-08-11T09:38:00.592Z,55.30
2022-08-11T09:43:48.116Z,55.00
2022-08-11T09:49:24.114Z,55.10
2022-08-11T09:54:53.753Z,54.50
2022-08-11T10:00:37.316Z,53.70
2022-08-11T10:06:34.039Z,54.10
2022-08-11T10:12:08.927Z,53.10
2022-08-11T10:18:00.795Z,53.30
2022-08-11T10:29:58.324Z,52.80
2022-08-11T10:35:32.459Z,52.90
2022-08-11T10:41:20.001Z,52.00
2022-08-11T10:47:08.209Z,52.20
2022-08-11T10:52:57.395Z,51.70
2022-08-11T10:58:44.467Z,50.60
2022-08-11T11:04:19.312Z,50.60
2022-08-11T11:10:13.960Z,50.60
2022-08-11T11:16:05.027Z,50.30
2022-08-11T11:21:34.245Z,50.70
2022-08-11T11:27:18.818Z,50.50
2022-08-11T11:33:13.621Z,49.30
2022-08-11T11:38:42.468Z,48.70
2022-08-11T11:44:13.610Z,48.40
2022-08-11T11:49:46.317Z,48.00
2022-08-11T11:55:14.460Z,47.80
2022-08-11T12:01:03.640Z,47.50
2022-08-11T12:06:32.846Z,47.20
2022-08-11T12:12:19.542Z,46.60
2022-08-11T12:17:52.406Z,46.80
2022-08-11T12:23:40.026Z,46.00
2022-08-11T12:29:11.914Z,46.00
2022-08-11T12:34:39.825Z,46.30
2022-08-11T12:41:12.147Z,45.90
2022-08-11T12:46:37.943Z,45.20
2022-08-11T12:52:15.759Z,44.80
2022-08-11T12:58:05.514Z,44.90
2022-08-11T13:03:56.814Z,44.30
2022-08-11T13:09:24.969Z,44.70
2022-08-11T13:14:53.579Z,44.50
2022-08-11T13:20:25.069Z,44.30
2022-08-11T13:25:55.404Z,43.50
2022-08-11T13:31:23.254Z,44.10
2022-08-11T13:36:55.442Z,43.90
2022-08-11T13:42:23.453Z,44.00
2022-08-11T13:47:56.132Z,43.10
2022-08-11T13:53:27.038Z,43.50
2022-08-11T13:58:56.916Z,43.70
2022-08-11T14:04:33.619Z,43.30
2022-08-11T14:10:04.288Z,43.60
2022-08-11T14:15:36.247Z,43.10
2022-08-11T14:21:24.373Z,43.30
2022-08-11T14:26:53.291Z,42.60
2022-08-11T14:32:22.543Z,42.40
2022-08-11T14:37:57.494Z,42.30
2022-08-11T14:44:10.376Z,42.40
2022-08-11T14:49:38.125Z,41.90
2022-08-11T14:55:47.937Z,40.00
2022-08-11T15:01:34.503Z,39.20
2022-08-11T15:07:03.013Z,39.90
2022-08-11T15:12:33.653Z,40.00
2022-08-11T15:18:06.140Z,40.00
2022-08-11T15:23:52.918Z,40.00
2022-08-11T15:29:44.784Z,39.90
2022-08-11T15:35:39.685Z,40.00
2022-08-11T15:41:28.345Z,39.80
2022-08-11T15:47:01.665Z,39.90
2022-08-11T15:52:35.778Z,40.10
2022-08-11T15:58:27.694Z,40.10
2022-08-11T16:04:14.103Z,40.10
2022-08-11T16:10:00.504Z,40.30
2022-08-11T16:15:47.847Z,40.10
2022-08-11T16:21:34.245Z,40.20
2022-08-11T16:27:13.699Z,40.70
2022-08-11T16:32:46.903Z,40.50
2022-08-11T16:38:34.349Z,40.70
2022-08-11T16:44:32.833Z,40.90
2022-08-11T16:50:07.547Z,41.20
2022-08-11T16:55:51.448Z,41.20
2022-08-11T17:01:23.490Z,41.30
2022-08-11T17:07:23.996Z,41.40
2022-08-11T17:13:11.276Z,41.70
2022-08-11T17:18:52.106Z,41.80
2022-08-11T17:24:20.353Z,41.90
2022-08-11T17:29:58.775Z,41.80
2022-08-11T17:35:33.583Z,41.80
2022-08-11T17:41:23.185Z,41.80
2022-08-11T17:47:16.744Z,41.80
2022-08-11T17:53:12.471Z,42.10
2022-08-11T17:59:00.422Z,42.10
2022-08-11T18:04:30.214Z,42.30
2022-08-11T18:16:04.838Z,42.40
2022-08-11T18:22:01.755Z,42.50
2022-08-11T18:28:06.275Z,42.80
2022-08-11T18:34:10.969Z,42.90
2022-08-11T18:40:05.021Z,43.00
2022-08-11T18:46:06.143Z,43.20
2022-08-11T18:51:56.588Z,43.30
2022-08-11T18:57:54.078Z,43.20
2022-08-11T19:03:48.420Z,43.60
2022-08-11T19:09:38.550Z,43.60
2022-08-11T19:15:27.085Z,43.80
2022-08-11T19:21:16.061Z,44.20
2022-08-11T19:27:04.408Z,44.10
2022-08-11T19:32:51.667Z,44.20
2022-08-11T19:38:41.015Z,44.70
2022-08-11T19:44:29.416Z,44.70
2022-08-11T19:50:21.916Z,44.70
2022-08-11T19:56:14.497Z,44.80
2022-08-11T20:02:13.294Z,45.10
2022-08-11T20:08:02.259Z,45.30
2022-08-11T20:13:49.935Z,45.60
2022-08-11T20:19:56.575Z,45.40
2022-08-11T20:25:44.899Z,45.90
2022-08-11T20:31:34.996Z,45.70
2022-08-11T20:37:24.310Z,45.70
2022-08-11T20:44:06.738Z,45.90
2022-08-11T20:49:21.697Z,46.10
2022-08-11T20:55:19.043Z,46.20
2022-08-11T21:01:20.242Z,46.40
2022-08-11T21:07:10.115Z,46.50
2022-08-11T21:13:25.476Z,47.00
2022-08-11T21:19:11.656Z,47.00
2022-08-11T21:25:08.686Z,47.40
2022-08-11T21:30:57.596Z,47.40
2022-08-11T21:36:46.656Z,47.50
2022-08-11T21:42:34.704Z,48.00
2022-08-11T21:48:23.297Z,47.90
2022-08-11T21:54:10.632Z,48.40
2022-08-11T22:00:13.931Z,48.40
2022-08-11T22:06:00.775Z,47.30
2022-08-11T22:11:47.925Z,48.80
2022-08-11T22:17:34.728Z,49.00
2022-08-11T22:23:22.073Z,49.20
2022-08-11T22:29:09.182Z,49.70
2022-08-11T22:34:55.707Z,49.60
2022-08-11T22:40:42.984Z,49.90
2022-08-11T22:46:29.884Z,50.30
2022-08-11T22:52:18.045Z,50.60
2022-08-11T22:58:06.331Z,50.60
2022-08-11T23:03:54.117Z,50.90
2022-08-11T23:09:43.239Z,51.40
2022-08-11T23:15:30.000Z,51.40
2022-08-11T23:21:17.191Z,51.30
2022-08-11T23:27:04.301Z,51.90
2022-08-11T23:32:52.193Z,52.00
2022-08-11T23:38:38.880Z,51.90
2022-08-11T23:44:27.181Z,52.60
2022-08-11T23:56:05.014Z,52.40
